createdAt,value
2023-03-15T00:00:40.162Z,1003.68
2023-03-15T00:01:40.123Z,1003.74
2023-03-15T00:02:40.127Z,1003.77
2023-03-15T00:03:40.110Z,1003.76
2023-03-15T00:04:39.999Z,1003.78
2023-03-15T00:05:39.958Z,1003.77
2023-03-15T00:06:39.913Z,1003.78
2023-03-15T00:07:39.878Z,1003.84
2023-03-15T00:08:39.850Z,1003.84
2023-03-15T00:09:39.799Z,1003.90
2023-03-15T00:10:39.754Z,1003.97
2023-03-15T00:11:39.734Z,1003.98
2023-03-15T00:12:39.667Z,1004.00
2023-03-15T00:13:39.633Z,1004.00
2023-03-15T00:14:39.590Z,1003.98
2023-03-15T00:15:39.564Z,1003.99
2023-03-15T00:16:39.523Z,1004.01
2023-03-15T00:17:39.474Z,1003.99
2023-03-15T00:18:39.449Z,1004.04
2023-03-15T00:19:39.441Z,1004.03
2023-03-15T00:20:39.411Z,1004.01
2023-03-15T00:21:39.315Z,1003.97
2023-03-15T00:22:39.271Z,1004.00
2023-03-15T00:23:39.235Z,1004.04
2023-03-15T00:24:39.190Z,1004.02
2023-03-15T00:25:39.155Z,1003.98
2023-03-15T00:26:39.120Z,1003.98
2023-03-15T00:27:39.071Z,1003.97
2023-03-15T00:28:39.035Z,1004.03
2023-03-15T00:29:39.001Z,1004.05
2023-03-15T00:30:38.975Z,1004.02
2023-03-15T00:31:38.918Z,1004.00
2023-03-15T00:32:38.908Z,1004.02
2023-03-15T00:33:38.847Z,1004.03
2023-03-15T00:34:38.804Z,1004.06
2023-03-15T00:35:38.807Z,1004.08
2023-03-15T00:36:38.717Z,1004.07
2023-03-15T00:37:38.680Z,1004.08
2023-03-15T00:38:38.678Z,1004.02
2023-03-15T00:39:38.602Z,1004.06
2023-03-15T00:40:38.565Z,1004.07
2023-03-15T00:41:38.525Z,1004.03
2023-03-15T00:42:38.474Z,1004.03
2023-03-15T00:43:38.440Z,1003.98
2023-03-15T00:44:38.388Z,1004.00
2023-03-15T00:45:38.353Z,1004.00
2023-03-15T00:46:38.347Z,1003.99
2023-03-15T00:47:38.285Z,1004.05
2023-03-15T00:48:38.236Z,1004.05
2023-03-15T00:49:38.203Z,1004.07
2023-03-15T00:50:38.150Z,1004.09
2023-03-15T00:51:38.123Z,1004.10
2023-03-15T00:52:38.078Z,1004.10
2023-03-15T00:53:38.037Z,1004.08
2023-03-15T00:54:37.999Z,1004.10
2023-03-15T00:55:37.959Z,1004.10
2023-03-15T00:56:37.929Z,1004.08
2023-03-15T00:57:37.884Z,1004.08
2023-03-15T00:58:37.836Z,1004.06
2023-03-15T00:59:37.797Z,1004.12
2023-03-15T01:00:37.754Z,1004.12
2023-03-15T01:01:37.782Z,1004.13
2023-03-15T01:02:37.756Z,1004.13
2023-03-15T01:03:37.652Z,1004.10
2023-03-15T01:04:37.598Z,1004.06
2023-03-15T01:05:37.564Z,1004.09
2023-03-15T01:06:37.518Z,1004.12
2023-03-15T01:07:37.478Z,1004.19
2023-03-15T01:08:37.512Z,1004.24
2023-03-15T01:09:37.398Z,1004.34
2023-03-15T01:10:37.362Z,1004.39
2023-03-15T01:11:37.320Z,1004.39
2023-03-15T01:12:37.277Z,1004.44
2023-03-15T01:13:37.244Z,1004.58
2023-03-15T01:14:37.197Z,1004.56
2023-03-15T01:15:37.168Z,1004.61
2023-03-15T01:16:37.117Z,1004.60
2023-03-15T01:17:37.092Z,1004.56
2023-03-15T01:18:37.043Z,1004.52
2023-03-15T01:19:37.010Z,1004.50
2023-03-15T01:20:36.966Z,1004.51
2023-03-15T01:21:36.925Z,1004.62
2023-03-15T01:22:36.878Z,1004.62
2023-03-15T01:23:36.848Z,1004.56
2023-03-15T01:24:36.799Z,1004.54
2023-03-15T01:25:36.763Z,1004.49
2023-03-15T01:26:36.718Z,1004.55
2023-03-15T01:27:36.684Z,1004.50
2023-03-15T01:28:36.652Z,1004.50
2023-03-15T01:29:36.601Z,1004.49
2023-03-15T01:30:36.563Z,1004.50
2023-03-15T01:31:36.533Z,1004.54
2023-03-15T01:32:36.553Z,1004.48
2023-03-15T01:33:36.442Z,1004.54
2023-03-15T01:34:36.390Z,1004.53
2023-03-15T01:35:36.399Z,1004.50
2023-03-15T01:36:36.316Z,1004.58
2023-03-15T01:37:36.278Z,1004.53
2023-03-15T01:38:36.239Z,1004.56
2023-03-15T01:39:36.199Z,1004.57
2023-03-15T01:40:36.156Z,1004.56
2023-03-15T01:41:36.114Z,1004.57
2023-03-15T01:42:36.076Z,1004.66
2023-03-15T01:43:36.035Z,1004.60
2023-03-15T01:44:35.994Z,1004.63
2023-03-15T01:45:35.956Z,1004.63
2023-03-15T01:46:35.992Z,1004.64
2023-03-15T01:47:35.873Z,1004.69
2023-03-15T01:48:35.862Z,1004.65
2023-03-15T01:49:35.788Z,1004.61
2023-03-15T01:50:35.759Z,1004.62
2023-03-15T01:51:35.715Z,1004.63
2023-03-15T01:52:35.668Z,1004.66
2023-03-15T01:53:35.633Z,1004.66
2023-03-15T01:54:35.589Z,1004.73
2023-03-15T01:55:35.554Z,1004.70
2023-03-15T01:56:35.603Z,1004.70
2023-03-15T01:57:35.473Z,1004.71
2023-03-15T01:58:36.872Z,1004.70
2023-03-15T01:59:35.390Z,1004.69
2023-03-15T02:00:35.373Z,1004.72
2023-03-15T02:01:35.311Z,1004.77
2023-03-15T02:02:35.345Z,1004.79
2023-03-15T02:03:35.232Z,1004.81
2023-03-15T02:04:35.186Z,1004.84
2023-03-15T02:05:35.143Z,1004.80
2023-03-15T02:06:35.121Z,1004.82
2023-03-15T02:07:35.083Z,1004.84
2023-03-15T02:08:35.026Z,1004.88
2023-03-15T02:09:34.996Z,1004.85
2023-03-15T02:10:34.944Z,1004.80
2023-03-15T02:11:34.904Z,1004.79
2023-03-15T02:12:34.864Z,1004.74
2023-03-15T02:13:34.856Z,1004.74
2023-03-15T02:14:34.783Z,1004.69
2023-03-15T02:15:34.746Z,1004.62
2023-03-15T02:16:34.788Z,1004.57
2023-03-15T02:17:34.680Z,1004.58
2023-03-15T02:18:34.621Z,1004.58
2023-03-15T02:19:34.595Z,1004.53
2023-03-15T02:20:34.629Z,1004.54
2023-03-15T02:21:34.506Z,1004.55
2023-03-15T02:22:34.460Z,1004.57
2023-03-15T02:23:34.420Z,1004.58
2023-03-15T02:24:34.373Z,1004.54
2023-03-15T02:25:34.341Z,1004.51
2023-03-15T02:26:34.325Z,1004.53
2023-03-15T02:27:34.345Z,1004.54
2023-03-15T02:28:34.229Z,1004.53
2023-03-15T02:29:34.171Z,1004.57
2023-03-15T02:30:34.130Z,1004.58
2023-03-15T02:31:34.130Z,1004.60
2023-03-15T02:32:34.081Z,1004.66
2023-03-15T02:33:34.020Z,1004.65
2023-03-15T02:34:33.974Z,1004.66
2023-03-15T02:35:33.939Z,1004.66
2023-03-15T02:36:33.896Z,1004.69
2023-03-15T02:37:33.852Z,1004.60
2023-03-15T02:38:33.809Z,1004.64
2023-03-15T02:39:33.781Z,1004.63
2023-03-15T02:40:33.727Z,1004.70
2023-03-15T02:41:33.689Z,1004.70
2023-03-15T02:42:33.643Z,1004.72
2023-03-15T02:43:33.611Z,1004.70
2023-03-15T02:44:33.584Z,1004.71
2023-03-15T02:45:33.681Z,1004.72
2023-03-15T02:46:33.483Z,1004.69
2023-03-15T02:47:33.450Z,1004.71
2023-03-15T02:48:33.411Z,1004.72
2023-03-15T02:49:33.360Z,1004.70
2023-03-15T02:50:33.321Z,1004.68
2023-03-15T02:51:33.287Z,1004.71
2023-03-15T02:52:33.244Z,1004.73
2023-03-15T02:53:33.226Z,1004.69
2023-03-15T02:54:33.162Z,1004.75
2023-03-15T02:55:33.120Z,1004.74
2023-03-15T02:56:33.081Z,1004.72
2023-03-15T02:57:33.052Z,1004.70
2023-03-15T02:58:32.998Z,1004.69
2023-03-15T02:59:32.958Z,1004.67
2023-03-15T03:00:32.930Z,1004.71
2023-03-15T03:01:32.907Z,1004.70
2023-03-15T03:02:32.861Z,1004.74
2023-03-15T03:03:32.789Z,1004.75
2023-03-15T03:04:32.753Z,1004.76
2023-03-15T03:05:32.756Z,1004.75
2023-03-15T03:06:32.681Z,1004.77
2023-03-15T03:07:32.628Z,1004.76
2023-03-15T03:08:32.619Z,1004.78
2023-03-15T03:09:32.549Z,1004.83
2023-03-15T03:10:32.501Z,1004.82
2023-03-15T03:11:32.469Z,1004.83
2023-03-15T03:12:32.426Z,1004.85
2023-03-15T03:13:32.390Z,1004.86
2023-03-15T03:14:32.354Z,1004.94
2023-03-15T03:15:32.301Z,1004.95
2023-03-15T03:16:32.368Z,1004.96
2023-03-15T03:17:32.221Z,1004.97
2023-03-15T03:18:32.176Z,1004.98
2023-03-15T03:19:32.145Z,1004.98
2023-03-15T03:20:32.110Z,1004.99
2023-03-15T03:21:32.055Z,1004.97
2023-03-15T03:22:32.017Z,1005.00
2023-03-15T03:23:31.971Z,1004.98
2023-03-15T03:24:32.024Z,1004.98
2023-03-15T03:25:31.887Z,1005.00
2023-03-15T03:26:31.846Z,1005.00
2023-03-15T03:27:31.804Z,1005.02
2023-03-15T03:28:31.769Z,1004.99
2023-03-15T03:29:31.731Z,1005.01
2023-03-15T03:30:31.738Z,1005.00
2023-03-15T03:31:31.639Z,1005.02
2023-03-15T03:32:31.627Z,1005.06
2023-03-15T03:33:31.559Z,1005.05
2023-03-15T03:34:31.520Z,1005.03
2023-03-15T03:35:31.533Z,1005.01
2023-03-15T03:36:31.430Z,1005.04
2023-03-15T03:37:31.392Z,1005.04
2023-03-15T03:38:31.364Z,1005.04
2023-03-15T03:39:31.311Z,1005.05
2023-03-15T03:40:31.267Z,1005.08
2023-03-15T03:41:31.228Z,1005.07
2023-03-15T03:42:31.183Z,1005.06
2023-03-15T03:43:31.180Z,1005.11
2023-03-15T03:44:31.147Z,1005.11
2023-03-15T03:45:31.070Z,1005.11
2023-03-15T03:46:31.069Z,1005.16
2023-03-15T03:47:30.978Z,1005.14
2023-03-15T03:48:30.944Z,1005.18
2023-03-15T03:49:30.903Z,1005.16
2023-03-15T03:50:30.890Z,1005.19
2023-03-15T03:51:30.818Z,1005.17
2023-03-15T03:52:30.779Z,1005.18
2023-03-15T03:53:30.743Z,1005.18
2023-03-15T03:54:30.696Z,1005.20
2023-03-15T03:55:30.666Z,1005.16
2023-03-15T03:56:30.612Z,1005.16
2023-03-15T03:57:30.594Z,1005.11
2023-03-15T03:58:30.532Z,1005.14
2023-03-15T03:59:30.572Z,1005.19
2023-03-15T04:00:30.455Z,1005.23
2023-03-15T04:01:30.408Z,1005.23
2023-03-15T04:02:30.435Z,1005.25
2023-03-15T04:03:30.342Z,1005.27
2023-03-15T04:04:30.410Z,1005.31
2023-03-15T04:05:30.252Z,1005.33
2023-03-15T04:06:30.210Z,1005.32
2023-03-15T04:07:30.176Z,1005.35
2023-03-15T04:08:30.130Z,1005.40
2023-03-15T04:09:30.100Z,1005.39
2023-03-15T04:10:30.046Z,1005.40
2023-03-15T04:11:30.014Z,1005.41
2023-03-15T04:12:30.065Z,1005.39
2023-03-15T04:13:29.936Z,1005.46
2023-03-15T04:14:29.888Z,1005.45
2023-03-15T04:15:29.845Z,1005.47
2023-03-15T04:16:29.947Z,1005.41
2023-03-15T04:17:29.760Z,1005.44
2023-03-15T04:18:29.745Z,1005.45
2023-03-15T04:19:29.681Z,1005.44
2023-03-15T04:20:29.716Z,1005.50
2023-03-15T04:21:29.614Z,1005.49
2023-03-15T04:22:29.578Z,1005.52
2023-03-15T04:23:29.517Z,1005.51
2023-03-15T04:24:29.485Z,1005.53
2023-03-15T04:25:29.442Z,1005.55
2023-03-15T04:26:29.402Z,1005.58
2023-03-15T04:27:29.359Z,1005.58
2023-03-15T04:28:29.330Z,1005.60
2023-03-15T04:29:29.285Z,1005.68
2023-03-15T04:30:29.247Z,1005.69
2023-03-15T04:31:29.254Z,1005.67
2023-03-15T04:32:29.185Z,1005.71
2023-03-15T04:33:29.125Z,1005.71
2023-03-15T04:34:29.078Z,1005.72
2023-03-15T04:35:29.054Z,1005.76
2023-03-15T04:36:29.006Z,1005.77
2023-03-15T04:37:28.963Z,1005.72
2023-03-15T04:38:28.919Z,1005.70
2023-03-15T04:39:28.889Z,1005.75
2023-03-15T04:40:28.850Z,1005.79
2023-03-15T04:41:28.802Z,1005.80
2023-03-15T04:42:28.768Z,1005.78
2023-03-15T04:43:28.735Z,1005.77
2023-03-15T04:44:28.676Z,1005.81
2023-03-15T04:45:28.644Z,1005.82
2023-03-15T04:46:28.649Z,1005.85
2023-03-15T04:47:28.568Z,1005.82
2023-03-15T04:48:28.513Z,1005.84
2023-03-15T04:49:28.473Z,1005.90
2023-03-15T04:50:28.443Z,1005.87
2023-03-15T04:51:28.396Z,1005.87
2023-03-15T04:52:28.360Z,1005.85
2023-03-15T04:53:28.312Z,1005.86
2023-03-15T04:54:28.275Z,1005.83
2023-03-15T04:55:28.240Z,1005.88
2023-03-15T04:56:28.202Z,1005.84
2023-03-15T04:57:28.152Z,1005.86
2023-03-15T04:58:28.108Z,1005.88
2023-03-15T04:59:28.077Z,1005.86
2023-03-15T05:00:28.097Z,1005.87
2023-03-15T05:01:27.984Z,1005.85
2023-03-15T05:02:27.950Z,1005.92
2023-03-15T05:03:27.905Z,1005.93
2023-03-15T05:04:27.860Z,1005.92
2023-03-15T05:05:27.820Z,1005.92
2023-03-15T05:06:27.779Z,1005.90
2023-03-15T05:07:27.734Z,1005.92
2023-03-15T05:08:27.698Z,1005.93
2023-03-15T05:09:27.655Z,1005.95
2023-03-15T05:10:27.615Z,1005.89
2023-03-15T05:11:27.602Z,1005.90
2023-03-15T05:12:27.530Z,1005.88
2023-03-15T05:13:27.494Z,1005.83
2023-03-15T05:14:27.452Z,1005.87
2023-03-15T05:15:27.453Z,1005.86
2023-03-15T05:16:27.500Z,1005.89
2023-03-15T05:17:27.347Z,1005.89
2023-03-15T05:18:27.298Z,1005.88
2023-03-15T05:19:27.248Z,1005.83
2023-03-15T05:20:27.207Z,1005.89
2023-03-15T05:21:27.169Z,1005.88
2023-03-15T05:22:27.128Z,1005.92
2023-03-15T05:23:27.092Z,1005.96
2023-03-15T05:24:27.058Z,1005.98
2023-03-15T05:25:27.005Z,1006.01
2023-03-15T05:26:26.965Z,1006.04
2023-03-15T05:27:26.924Z,1006.02
2023-03-15T05:28:26.886Z,1006.06
2023-03-15T05:29:26.848Z,1006.07
2023-03-15T05:30:26.797Z,1006.09
2023-03-15T05:31:26.787Z,1006.10
2023-03-15T05:32:26.823Z,1006.14
2023-03-15T05:33:26.689Z,1006.13
2023-03-15T05:34:26.630Z,1006.15
2023-03-15T05:35:26.746Z,1006.20
2023-03-15T05:36:26.551Z,1006.20
2023-03-15T05:37:26.512Z,1006.20
2023-03-15T05:38:26.513Z,1006.25
2023-03-15T05:39:26.431Z,1006.26
2023-03-15T05:40:26.398Z,1006.28
2023-03-15T05:41:26.348Z,1006.27
2023-03-15T05:42:26.367Z,1006.30
2023-03-15T05:43:26.279Z,1006.28
2023-03-15T05:44:26.221Z,1006.34
2023-03-15T05:45:26.187Z,1006.37
2023-03-15T05:46:26.146Z,1006.39
2023-03-15T05:47:26.100Z,1006.40
2023-03-15T05:48:26.063Z,1006.44
2023-03-15T05:49:26.070Z,1006.45
2023-03-15T05:50:25.987Z,1006.47
2023-03-15T05:51:25.939Z,1006.49
2023-03-15T05:52:25.896Z,1006.51
2023-03-15T05:53:25.856Z,1006.52
2023-03-15T05:54:25.822Z,1006.57
2023-03-15T05:55:25.788Z,1006.59
2023-03-15T05:56:25.739Z,1006.61
2023-03-15T05:57:25.703Z,1006.62
2023-03-15T05:58:25.648Z,1006.62
2023-03-15T05:59:25.611Z,1006.67
2023-03-15T06:00:25.580Z,1006.67
2023-03-15T06:01:25.531Z,1006.68
2023-03-15T06:02:25.592Z,1006.71
2023-03-15T06:03:25.482Z,1006.71
2023-03-15T06:04:25.423Z,1006.71
2023-03-15T06:05:25.536Z,1006.74
2023-03-15T06:06:25.322Z,1006.80
2023-03-15T06:07:25.284Z,1006.82
2023-03-15T06:08:25.262Z,1006.88
2023-03-15T06:09:25.218Z,1006.86
2023-03-15T06:10:25.175Z,1006.81
2023-03-15T06:11:25.117Z,1006.83
2023-03-15T06:12:25.082Z,1006.81
2023-03-15T06:13:25.042Z,1006.82
2023-03-15T06:14:25.004Z,1006.85
2023-03-15T06:15:24.964Z,1006.83
2023-03-15T06:16:24.951Z,1006.82
2023-03-15T06:17:24.873Z,1006.81
2023-03-15T06:18:24.861Z,1006.87
2023-03-15T06:19:24.811Z,1006.87
2023-03-15T06:20:24.753Z,1006.92
2023-03-15T06:21:24.713Z,1006.93
2023-03-15T06:22:24.680Z,1006.96
2023-03-15T06:23:24.643Z,1007.03
2023-03-15T06:24:24.593Z,1007.02
2023-03-15T06:25:24.589Z,1007.06
2023-03-15T06:26:24.512Z,1007.11
2023-03-15T06:27:24.487Z,1007.11
2023-03-15T06:28:24.437Z,1007.16
2023-03-15T06:29:24.395Z,1007.18
2023-03-15T06:30:24.348Z,1007.22
2023-03-15T06:31:24.312Z,1007.23
2023-03-15T06:32:24.458Z,1007.26
2023-03-15T06:33:24.226Z,1007.24
2023-03-15T06:34:24.204Z,1007.31
2023-03-15T06:35:24.164Z,1007.26
2023-03-15T06:36:24.111Z,1007.31
2023-03-15T06:37:34.507Z,1007.33
2023-03-15T06:38:24.030Z,1007.32
2023-03-15T06:39:23.995Z,1007.35
2023-03-15T06:40:24.556Z,1007.34
2023-03-15T06:41:23.907Z,1007.35
2023-03-15T06:42:24.186Z,1007.40
2023-03-15T06:43:23.849Z,1007.39
2023-03-15T06:44:23.791Z,1007.41
2023-03-15T06:45:23.752Z,1007.39
2023-03-15T06:46:23.750Z,1007.45
2023-03-15T06:47:23.954Z,1007.49
2023-03-15T06:48:23.938Z,1007.52
2023-03-15T06:49:23.584Z,1007.51
2023-03-15T06:50:24.061Z,1007.57
2023-03-15T06:51:23.506Z,1007.55
2023-03-15T06:52:23.477Z,1007.56
2023-03-15T06:53:23.424Z,1007.60
2023-03-15T06:54:23.392Z,1007.61
2023-03-15T06:55:23.362Z,1007.64
2023-03-15T06:56:23.299Z,1007.63
2023-03-15T06:57:23.261Z,1007.65
2023-03-15T06:58:23.214Z,1007.67
2023-03-15T06:59:23.180Z,1007.67
2023-03-15T07:00:23.152Z,1007.70
2023-03-15T07:01:23.140Z,1007.72
2023-03-15T07:02:23.127Z,1007.73
2023-03-15T07:03:23.022Z,1007.75
2023-03-15T07:04:22.984Z,1007.78
2023-03-15T07:05:22.945Z,1007.77
2023-03-15T07:06:22.900Z,1007.83
2023-03-15T07:07:22.857Z,1007.83
2023-03-15T07:08:22.821Z,1007.85
2023-03-15T07:09:22.781Z,1007.89
2023-03-15T07:10:22.738Z,1007.90
2023-03-15T07:11:22.698Z,1007.93
2023-03-15T07:12:22.661Z,1007.94
2023-03-15T07:13:22.625Z,1007.96
2023-03-15T07:14:22.618Z,1008.03
2023-03-15T07:15:22.548Z,1008.06
2023-03-15T07:16:22.556Z,1008.07
2023-03-15T07:17:22.460Z,1008.05
2023-03-15T07:18:22.418Z,1008.05
2023-03-15T07:19:22.393Z,1008.09
2023-03-15T07:20:22.355Z,1008.07
2023-03-15T07:21:22.301Z,1008.13
2023-03-15T07:22:22.259Z,1008.13
2023-03-15T07:23:22.214Z,1008.17
2023-03-15T07:24:22.173Z,1008.18
2023-03-15T07:25:22.145Z,1008.16
2023-03-15T07:26:22.096Z,1008.19
2023-03-15T07:27:22.068Z,1008.13
2023-03-15T07:28:22.025Z,1008.16
2023-03-15T07:29:21.976Z,1008.20
2023-03-15T07:30:21.948Z,1008.22
2023-03-15T07:31:21.903Z,1008.26
2023-03-15T07:32:22.040Z,1008.27
2023-03-15T07:33:21.873Z,1008.28
2023-03-15T07:34:21.778Z,1008.30
2023-03-15T07:35:21.737Z,1008.33
2023-03-15T07:36:21.704Z,1008.34
2023-03-15T07:37:21.651Z,1008.34
2023-03-15T07:38:21.624Z,1008.34
2023-03-15T07:39:21.576Z,1008.39
2023-03-15T07:40:21.540Z,1008.39
2023-03-15T07:41:21.493Z,1008.42
2023-03-15T07:42:21.457Z,1008.40
2023-03-15T07:43:21.424Z,1008.45
2023-03-15T07:44:21.399Z,1008.41
2023-03-15T07:45:21.327Z,1008.40
2023-03-15T07:46:21.374Z,1008.40
2023-03-15T07:47:21.254Z,1008.41
2023-03-15T07:48:21.213Z,1008.44
2023-03-15T07:49:21.162Z,1008.49
2023-03-15T07:50:21.124Z,1008.50
2023-03-15T07:51:21.221Z,1008.52
2023-03-15T07:52:21.044Z,1008.55
2023-03-15T07:53:21.017Z,1008.55
2023-03-15T07:54:20.975Z,1008.57
2023-03-15T07:55:20.926Z,1008.56
2023-03-15T07:56:20.884Z,1008.66
2023-03-15T07:57:20.860Z,1008.65
2023-03-15T07:58:20.808Z,1008.66
2023-03-15T07:59:20.769Z,1008.71
2023-03-15T08:00:20.730Z,1008.73
2023-03-15T08:01:20.696Z,1008.71
2023-03-15T08:02:20.684Z,1008.76
2023-03-15T08:03:20.685Z,1008.77
2023-03-15T08:04:20.600Z,1008.78
2023-03-15T08:05:20.538Z,1008.78
2023-03-15T08:06:20.497Z,1008.84
2023-03-15T08:07:20.448Z,1008.81
2023-03-15T08:08:20.407Z,1008.86
2023-03-15T08:09:20.362Z,1008.85
2023-03-15T08:10:20.334Z,1008.92
2023-03-15T08:11:20.287Z,1008.92
2023-03-15T08:12:20.245Z,1008.91
2023-03-15T08:13:20.214Z,1008.90
2023-03-15T08:14:20.171Z,1008.95
2023-03-15T08:15:20.141Z,1008.96
2023-03-15T08:16:20.123Z,1008.93
2023-03-15T08:17:20.050Z,1009.00
2023-03-15T08:18:20.008Z,1008.99
2023-03-15T08:19:19.969Z,1009.01
2023-03-15T08:20:19.933Z,1009.01
2023-03-15T08:21:19.891Z,1009.05
2023-03-15T08:22:19.849Z,1009.07
2023-03-15T08:23:19.812Z,1009.10
2023-03-15T08:24:19.771Z,1009.08
2023-03-15T08:25:19.728Z,1009.09
2023-03-15T08:26:19.699Z,1009.13
2023-03-15T08:27:19.655Z,1009.14
2023-03-15T08:28:19.620Z,1009.15
2023-03-15T08:29:19.580Z,1009.18
2023-03-15T08:30:19.539Z,1009.20
2023-03-15T08:31:19.552Z,1009.20
2023-03-15T08:32:19.456Z,1009.24
2023-03-15T08:33:19.432Z,1009.25
2023-03-15T08:34:19.376Z,1009.27
2023-03-15T08:35:19.345Z,1009.29
2023-03-15T08:36:19.355Z,1009.33
2023-03-15T08:37:19.286Z,1009.33
2023-03-15T08:38:19.241Z,1009.38
2023-03-15T08:39:19.180Z,1009.39
2023-03-15T08:40:19.289Z,1009.42
2023-03-15T08:41:19.109Z,1009.44
2023-03-15T08:42:19.077Z,1009.43
2023-03-15T08:43:19.018Z,1009.46
2023-03-15T08:44:19.011Z,1009.43
2023-03-15T08:45:18.950Z,1009.44
2023-03-15T08:46:18.912Z,1009.55
2023-03-15T08:47:18.884Z,1009.57
2023-03-15T08:48:18.819Z,1009.58
2023-03-15T08:49:18.778Z,1009.60
2023-03-15T08:50:18.734Z,1009.64
2023-03-15T08:51:18.707Z,1009.68
2023-03-15T08:52:18.665Z,1009.71
2023-03-15T08:53:18.619Z,1009.73
2023-03-15T08:54:18.579Z,1009.78
2023-03-15T08:55:18.542Z,1009.80
2023-03-15T08:56:18.499Z,1009.77
2023-03-15T08:57:18.461Z,1009.77
2023-03-15T08:58:18.423Z,1009.82
2023-03-15T08:59:29.104Z,1009.83
2023-03-15T09:00:18.344Z,1009.83
2023-03-15T09:01:18.307Z,1009.83
2023-03-15T09:02:18.305Z,1009.87
2023-03-15T09:03:18.231Z,1009.85
2023-03-15T09:04:18.215Z,1009.88
2023-03-15T09:05:18.143Z,1009.87
2023-03-15T09:06:18.102Z,1009.89
2023-03-15T09:07:18.067Z,1009.90
2023-03-15T09:08:18.038Z,1009.91
2023-03-15T09:09:18.002Z,1009.95
2023-03-15T09:10:17.965Z,1009.95
2023-03-15T09:11:17.907Z,1009.95
2023-03-15T09:12:17.873Z,1009.95
2023-03-15T09:13:17.832Z,1010.02
2023-03-15T09:14:17.799Z,1010.00
2023-03-15T09:15:17.750Z,1009.98
2023-03-15T09:16:17.720Z,1009.99
2023-03-15T09:17:17.676Z,1009.92
2023-03-15T09:18:17.657Z,1009.92
2023-03-15T09:19:17.586Z,1009.91
2023-03-15T09:20:17.548Z,1009.95
2023-03-15T09:21:17.519Z,1009.93
2023-03-15T09:22:29.234Z,1009.89
2023-03-15T09:23:17.441Z,1009.90
2023-03-15T09:24:17.409Z,1009.90
2023-03-15T09:25:17.363Z,1009.89
2023-03-15T09:26:17.338Z,1009.91
2023-03-15T09:27:17.282Z,1009.92
2023-03-15T09:28:17.245Z,1009.94
2023-03-15T09:29:17.212Z,1009.92
2023-03-15T09:30:17.179Z,1009.95
2023-03-15T09:31:17.227Z,1009.97
2023-03-15T09:32:17.094Z,1009.95
2023-03-15T09:33:17.060Z,1009.95
2023-03-15T09:34:17.019Z,1009.99
2023-03-15T09:35:16.973Z,1010.03
2023-03-15T09:36:16.934Z,1010.01
2023-03-15T09:37:16.930Z,1010.02
2023-03-15T09:38:16.857Z,1010.03
2023-03-15T09:39:16.823Z,1010.06
2023-03-15T09:40:16.826Z,1010.10
2023-03-15T09:41:16.745Z,1010.14
2023-03-15T09:42:16.718Z,1010.18
2023-03-15T09:43:16.666Z,1010.17
2023-03-15T09:44:16.638Z,1010.20
2023-03-15T09:45:16.591Z,1010.21
2023-03-15T09:46:16.616Z,1010.28
2023-03-15T09:47:16.510Z,1010.24
2023-03-15T09:48:16.470Z,1010.24
2023-03-15T09:49:16.444Z,1010.26
2023-03-15T09:50:16.393Z,1010.28
2023-03-15T09:51:16.354Z,1010.22
2023-03-15T09:52:16.317Z,1010.21
2023-03-15T09:53:16.275Z,1010.25
2023-03-15T09:54:19.126Z,1010.23
2023-03-15T09:55:16.197Z,1010.24
2023-03-15T09:56:16.165Z,1010.25
2023-03-15T09:57:16.123Z,1010.23
2023-03-15T09:58:16.097Z,1010.21
2023-03-15T09:59:16.057Z,1010.21
2023-03-15T10:00:16.030Z,1010.19
2023-03-15T10:01:16.008Z,1010.21
2023-03-15T10:02:15.931Z,1010.19
2023-03-15T10:03:15.905Z,1010.19
2023-03-15T10:04:15.849Z,1010.12
2023-03-15T10:05:15.815Z,1010.22
2023-03-15T10:06:15.819Z,1010.18
2023-03-15T10:07:15.737Z,1010.19
2023-03-15T10:08:15.705Z,1010.12
2023-03-15T10:09:15.658Z,1010.12
2023-03-15T10:10:15.641Z,1010.09
2023-03-15T10:11:15.583Z,1010.13
2023-03-15T10:12:15.543Z,1010.04
2023-03-15T10:13:15.503Z,1010.05
2023-03-15T10:14:15.495Z,1010.02
2023-03-15T10:15:15.424Z,1010.03
2023-03-15T10:16:15.424Z,1010.10
2023-03-15T10:17:15.351Z,1010.06
2023-03-15T10:18:15.309Z,1010.12
2023-03-15T10:19:15.272Z,1010.13
2023-03-15T10:20:15.233Z,1010.14
2023-03-15T10:21:15.192Z,1010.11
2023-03-15T10:22:15.155Z,1010.17
2023-03-15T10:23:15.120Z,1010.17
2023-03-15T10:24:15.078Z,1010.17
2023-03-15T10:25:15.044Z,1010.21
2023-03-15T10:26:15.004Z,1010.21
2023-03-15T10:27:14.985Z,1010.21
2023-03-15T10:28:14.940Z,1010.25
2023-03-15T10:29:14.903Z,1010.21
2023-03-15T10:30:14.859Z,1010.26
2023-03-15T10:31:22.454Z,1010.25
2023-03-15T10:32:14.863Z,1010.29
2023-03-15T10:33:14.740Z,1010.27
2023-03-15T10:34:14.708Z,1010.25
2023-03-15T10:35:14.668Z,1010.21
2023-03-15T10:36:14.650Z,1010.27
2023-03-15T10:37:14.588Z,1010.28
2023-03-15T10:38:14.553Z,1010.29
2023-03-15T10:39:14.521Z,1010.25
2023-03-15T10:40:14.474Z,1010.30
2023-03-15T10:41:17.839Z,1010.25
2023-03-15T10:42:14.409Z,1010.25
2023-03-15T10:43:14.382Z,1010.29
2023-03-15T10:44:14.339Z,1010.31
2023-03-15T10:45:14.300Z,1010.27
2023-03-15T10:46:14.300Z,1010.26
2023-03-15T10:47:23.678Z,1010.27
2023-03-15T10:48:14.189Z,1010.26
2023-03-15T10:49:14.164Z,1010.27
2023-03-15T10:50:14.116Z,1010.24
2023-03-15T10:51:14.083Z,1010.27
2023-03-15T10:52:14.037Z,1010.26
2023-03-15T10:53:14.007Z,1010.25
2023-03-15T10:54:13.968Z,1010.27
2023-03-15T10:55:13.930Z,1010.29
2023-03-15T10:56:13.902Z,1010.28
2023-03-15T10:57:13.865Z,1010.27
2023-03-15T10:58:13.827Z,1010.27
2023-03-15T10:59:13.802Z,1010.34
2023-03-15T11:00:13.762Z,1010.37
2023-03-15T11:01:13.732Z,1010.37
2023-03-15T11:02:13.690Z,1010.32
2023-03-15T11:03:13.764Z,1010.38
2023-03-15T11:04:13.624Z,1010.28
2023-03-15T11:05:13.589Z,1010.37
2023-03-15T11:06:13.551Z,1010.38
2023-03-15T11:07:13.540Z,1010.39
2023-03-15T11:08:13.494Z,1010.39
2023-03-15T11:09:13.449Z,1010.42
2023-03-15T11:10:13.420Z,1010.37
2023-03-15T11:11:13.379Z,1010.48
2023-03-15T11:12:13.345Z,1010.46
2023-03-15T11:13:13.317Z,1010.43
2023-03-15T11:14:13.275Z,1010.48
2023-03-15T11:15:13.236Z,1010.47
2023-03-15T11:16:13.299Z,1010.48
2023-03-15T11:17:13.172Z,1010.53
2023-03-15T11:18:13.140Z,1010.56
2023-03-15T11:19:13.103Z,1010.51
2023-03-15T11:20:13.080Z,1010.55
2023-03-15T11:21:13.035Z,1010.53
2023-03-15T11:22:12.996Z,1010.54
2023-03-15T11:23:12.980Z,1010.57
2023-03-15T11:24:12.927Z,1010.64
2023-03-15T11:25:12.899Z,1010.67
2023-03-15T11:26:19.040Z,1010.68
2023-03-15T11:27:12.816Z,1010.66
2023-03-15T11:28:12.797Z,1010.67
2023-03-15T11:29:12.752Z,1010.66
2023-03-15T11:30:12.717Z,1010.66
2023-03-15T11:31:12.701Z,1010.72
2023-03-15T11:32:12.655Z,1010.70
2023-03-15T11:33:12.608Z,1010.74
2023-03-15T11:34:12.574Z,1010.69
2023-03-15T11:35:12.532Z,1010.68
2023-03-15T11:36:12.546Z,1010.78
2023-03-15T11:37:13.246Z,1010.76
2023-03-15T11:38:15.641Z,1010.74
2023-03-15T11:39:12.422Z,1010.74
2023-03-15T11:40:13.589Z,1010.72
2023-03-15T11:41:12.340Z,1010.68
2023-03-15T11:42:12.300Z,1010.72
2023-03-15T11:43:12.264Z,1010.75
2023-03-15T11:44:12.218Z,1010.80
2023-03-15T11:45:12.186Z,1010.83
2023-03-15T11:46:12.181Z,1010.83
2023-03-15T11:47:12.134Z,1010.85
2023-03-15T11:48:12.099Z,1010.82
2023-03-15T11:49:12.058Z,1010.86
2023-03-15T11:50:12.015Z,1010.93
2023-03-15T11:51:11.993Z,1010.90
2023-03-15T11:52:11.946Z,1010.79
2023-03-15T11:53:11.904Z,1010.80
2023-03-15T11:54:11.877Z,1010.88
2023-03-15T11:55:11.848Z,1010.93
2023-03-15T11:56:11.809Z,1010.91
2023-03-15T11:57:11.773Z,1010.97
2023-03-15T11:58:11.737Z,1010.97
2023-03-15T11:59:11.723Z,1010.97
2023-03-15T12:00:11.710Z,1010.99
2023-03-15T12:01:11.639Z,1011.02
2023-03-15T12:02:11.705Z,1011.04
2023-03-15T12:03:11.629Z,1011.03
2023-03-15T12:04:11.543Z,1011.01
2023-03-15T12:05:17.968Z,1011.04